Time;durP1;ratioP1;P1;durP2;ratioP2;P2;SDS_P1;SDS_P2;PMS_P1;PMS_P2;Temp;Humidity;BMP_temperature;BMP_pressure;BME280_temperature;BME280_humidity;BME280_pressure;Samples;Min_cycle;Max_cycle;Signal;HPM_P1;HPM_P2
2023/04/14 00:01:23;;;;;;;7.10;2.53;;;5.20;99.90;;;;;;5061667;28;20036;-84
2023/04/14 00:03:50;;;;;;;8.43;2.75;;;5.10;99.90;;;;;;5064831;28;20044;-84
2023/04/14 00:06:16;;;;;;;9.98;2.92;;;5.00;99.90;;;;;;5065685;28;20041;-84
2023/04/14 00:08:41;;;;;;;10.63;4.80;;;4.90;99.90;;;;;;5065329;28;20400;-84
2023/04/14 00:11:07;;;;;;;10.40;2.92;;;4.90;99.90;;;;;;5067826;28;20048;-83
2023/04/14 00:13:33;;;;;;;10.30;3.20;;;4.90;99.90;;;;;;5068336;28;20128;-84
2023/04/14 00:15:58;;;;;;;8.82;4.57;;;4.80;99.90;;;;;;5062812;28;20037;-83
2023/04/14 00:18:24;;;;;;;11.55;3.75;;;4.80;99.90;;;;;;5066510;28;20060;-84
2023/04/14 00:20:49;;;;;;;8.93;2.85;;;4.70;99.90;;;;;;5065509;28;20082;-84
2023/04/14 00:23:15;;;;;;;11.00;3.72;;;4.60;99.90;;;;;;5067948;28;20040;-84
2023/04/14 00:25:41;;;;;;;12.13;3.38;;;4.50;99.90;;;;;;5068740;28;20032;-83
2023/04/14 00:28:06;;;;;;;10.23;3.00;;;4.50;99.90;;;;;;5060951;28;20045;-83
2023/04/14 00:30:32;;;;;;;8.38;2.80;;;4.50;99.90;;;;;;5068557;28;20040;-84
2023/04/14 00:32:57;;;;;;;10.43;4.88;;;4.40;99.90;;;;;;5066578;28;20619;-83
2023/04/14 00:35:23;;;;;;;9.40;2.95;;;4.40;99.90;;;;;;5064338;28;20055;-83
2023/04/14 00:37:50;;;;;;;10.75;2.80;;;4.40;99.90;;;;;;5067610;28;20039;-83
2023/04/14 00:40:16;;;;;;;7.53;2.80;;;4.30;99.90;;;;;;5067219;28;20047;-83
2023/04/14 00:42:46;;;;;;;7.70;2.75;;;4.30;99.90;;;;;;5048596;28;20127;-83
2023/04/14 00:45:13;;;;;;;12.15;3.08;;;4.20;99.90;;;;;;5066156;28;20044;-84
2023/04/14 00:47:41;;;;;;;9.60;3.38;;;4.20;99.90;;;;;;5067564;28;20048;-84
2023/04/14 00:50:10;;;;;;;8.02;3.00;;;4.10;99.90;;;;;;5063822;28;20072;-84
2023/04/14 00:52:37;;;;;;;10.60;3.05;;;4.10;99.90;;;;;;5048249;28;20041;-84
2023/04/14 00:55:05;;;;;;;8.05;3.58;;;4.10;99.90;;;;;;5066889;28;20036;-84
2023/04/14 00:57:31;;;;;;;8.13;3.30;;;4.00;99.90;;;;;;5064877;28;20044;-84
2023/04/14 00:59:59;;;;;;;10.27;3.00;;;4.00;99.90;;;;;;5065896;28;20045;-84
2023/04/14 01:02:25;;;;;;;10.40;3.10;;;4.00;99.90;;;;;;5058432;28;20087;-84
2023/04/14 01:04:50;;;;;;;6.63;2.70;;;4.00;99.90;;;;;;5065487;28;20072;-84
2023/04/14 01:07:18;;;;;;;9.35;3.20;;;4.00;99.90;;;;;;5047512;28;20075;-84
2023/04/14 01:09:44;;;;;;;8.07;2.80;;;4.00;99.90;;;;;;5066150;28;20049;-84
2023/04/14 01:12:31;;;;;;;7.85;3.13;;;4.00;99.90;;;;;;5065306;28;20051;-84
2023/04/14 01:15:00;;;;;;;7.90;2.80;;;3.90;99.90;;;;;;5059774;28;20045;-84
2023/04/14 01:17:32;;;;;;;7.00;2.60;;;3.90;99.90;;;;;;5066726;28;20049;-84
2023/04/14 01:20:01;;;;;;;7.75;2.70;;;3.90;99.90;;;;;;5059605;28;20032;-83
2023/04/14 01:22:30;;;;;;;8.23;3.22;;;3.90;99.90;;;;;;5065202;28;20032;-84
2023/04/14 01:25:11;;;;;;;8.80;3.05;;;3.80;99.90;;;;;;5045480;28;20048;-84
2023/04/14 01:27:40;;;;;;;10.13;2.65;;;3.80;99.90;;;;;;5057383;28;20048;-84
2023/04/14 01:30:30;;;;;;;10.18;3.03;;;3.80;99.90;;;;;;5064170;28;20508;-84
2023/04/14 01:33:01;;;;;;;6.40;2.92;;;3.80;99.90;;;;;;5063222;28;20036;-83
2023/04/14 01:35:38;;;;;;;10.25;2.78;;;3.70;99.90;;;;;;5063793;28;20074;-84
2023/04/14 01:38:13;;;;;;;8.73;3.30;;;3.70;99.90;;;;;;5065102;28;20036;-84
2023/04/14 01:40:45;;;;;;;8.80;2.35;;;3.70;99.90;;;;;;5049058;28;20495;-83
2023/04/14 01:43:13;;;;;;;8.15;2.67;;;3.60;99.90;;;;;;5062478;28;20370;-83
2023/04/14 01:45:46;;;;;;;9.20;3.10;;;3.60;99.90;;;;;;5064976;28;20053;-84
2023/04/14 01:48:12;;;;;;;8.13;3.20;;;3.60;99.90;;;;;;5065918;28;20475;-83
2023/04/14 01:50:40;;;;;;;7.82;2.72;;;3.70;99.90;;;;;;5046309;28;20040;-83
2023/04/14 01:53:07;;;;;;;7.45;2.83;;;3.70;99.90;;;;;;5062728;28;20557;-84
2023/04/14 01:55:36;;;;;;;11.15;2.47;;;3.70;99.90;;;;;;5062488;28;20364;-83
2023/04/14 01:58:04;;;;;;;9.73;3.17;;;3.80;99.90;;;;;;5063007;28;20052;-83
2023/04/14 02:00:31;;;;;;;8.38;3.33;;;3.80;99.90;;;;;;5063341;28;20400;-85
2023/04/14 02:02:57;;;;;;;7.10;2.47;;;3.90;99.90;;;;;;5065448;28;21438;-84
2023/04/14 02:05:24;;;;;;;6.72;2.55;;;3.90;99.90;;;;;;5062948;28;20043;-84
2023/04/14 02:07:52;;;;;;;8.45;3.08;;;4.00;99.90;;;;;;5064558;28;20365;-84
2023/04/14 02:10:20;;;;;;;8.27;2.88;;;4.00;99.90;;;;;;5062404;28;20112;-85
2023/04/14 02:12:47;;;;;;;7.93;2.92;;;4.10;99.90;;;;;;5067114;28;20040;-85
2023/04/14 02:15:16;;;;;;;8.88;2.97;;;4.10;99.90;;;;;;5061694;28;20037;-85
2023/04/14 02:17:45;;;;;;;9.30;2.97;;;4.20;99.90;;;;;;5064279;28;20048;-85
2023/04/14 02:20:13;;;;;;;7.43;2.75;;;4.20;99.90;;;;;;5063673;28;20041;-84
2023/04/14 02:22:39;;;;;;;9.20;3.30;;;4.30;99.90;;;;;;5046741;28;20120;-85
2023/04/14 02:25:05;;;;;;;9.50;2.97;;;4.30;99.90;;;;;;5065759;28;20455;-85
2023/04/14 02:27:55;;;;;;;7.82;3.10;;;4.30;99.90;;;;;;5059649;28;20051;-84
2023/04/14 02:30:43;;;;;;;6.70;2.45;;;4.40;99.90;;;;;;5065318;28;20492;-84
2023/04/14 02:33:15;;;;;;;8.52;3.00;;;4.40;99.90;;;;;;5065272;28;20488;-85
2023/04/14 02:35:46;;;;;;;7.50;3.00;;;4.50;99.90;;;;;;5062516;28;20053;-85
2023/04/14 02:38:28;;;;;;;6.97;2.55;;;4.50;99.90;;;;;;5063152;28;20044;-85
2023/04/14 02:40:54;;;;;;;8.85;2.97;;;4.60;99.90;;;;;;5058219;28;20376;-85
2023/04/14 02:43:30;;;;;;;7.88;2.90;;;4.60;99.90;;;;;;5063066;28;20063;-85
2023/04/14 02:45:58;;;;;;;8.70;3.03;;;4.70;99.90;;;;;;5057239;28;20393;-85
2023/04/14 02:48:26;;;;;;;8.93;3.28;;;4.70;99.90;;;;;;5064716;28;20551;-85
2023/04/14 02:50:54;;;;;;;9.38;3.25;;;4.70;99.90;;;;;;5057633;28;20086;-85
2023/04/14 02:53:22;;;;;;;9.60;3.05;;;4.80;99.90;;;;;;5079364;28;20045;-85
2023/04/14 02:55:50;;;;;;;8.10;2.78;;;4.80;99.90;;;;;;5062967;28;20123;-85
2023/04/14 02:58:16;;;;;;;7.78;2.75;;;4.80;99.90;;;;;;5046443;28;20049;-85
2023/04/14 03:00:42;;;;;;;9.98;4.72;;;4.90;99.90;;;;;;5062602;28;20043;-84
2023/04/14 03:03:10;;;;;;;10.07;3.22;;;4.90;99.90;;;;;;5062947;28;20442;-85
2023/04/14 03:05:38;;;;;;;7.05;2.83;;;4.90;99.90;;;;;;5062414;28;20079;-85
2023/04/14 03:08:04;;;;;;;7.25;2.97;;;4.90;99.90;;;;;;5060576;28;20401;-84
2023/04/14 03:10:31;;;;;;;10.40;3.20;;;5.00;99.90;;;;;;5064388;28;20119;-85
2023/04/14 03:12:59;;;;;;;7.80;3.20;;;5.00;99.90;;;;;;5064111;28;20451;-84
2023/04/14 03:15:25;;;;;;;9.80;3.17;;;5.00;99.90;;;;;;5063363;28;20052;-85
2023/04/14 03:17:55;;;;;;;7.88;2.78;;;5.00;99.90;;;;;;5064495;28;20686;-85
2023/04/14 03:20:22;;;;;;;10.25;4.45;;;5.00;99.90;;;;;;5061645;28;20081;-85
2023/04/14 03:22:56;;;;;;;9.35;3.08;;;5.10;99.90;;;;;;5064866;28;20033;-83
2023/04/14 03:25:26;;;;;;;8.60;2.70;;;5.00;99.90;;;;;;5061377;28;20048;-83
2023/04/14 03:27:54;;;;;;;7.78;2.58;;;5.00;99.90;;;;;;5064668;28;20408;-83
2023/04/14 03:30:24;;;;;;;8.05;2.90;;;5.00;99.90;;;;;;5047049;28;20045;-85
2023/04/14 03:32:52;;;;;;;10.70;4.57;;;5.00;99.90;;;;;;5047920;28;20119;-84
2023/04/14 03:35:20;;;;;;;7.90;2.88;;;5.00;99.90;;;;;;5064272;28;20048;-83
2023/04/14 03:37:49;;;;;;;9.98;2.95;;;5.00;99.90;;;;;;5064882;28;20248;-85
2023/04/14 03:40:16;;;;;;;7.43;2.72;;;5.00;99.90;;;;;;5059943;28;20036;-85
2023/04/14 03:42:44;;;;;;;6.70;2.40;;;5.00;99.90;;;;;;5067662;28;20060;-85
2023/04/14 03:45:10;;;;;;;7.65;3.45;;;5.00;99.90;;;;;;5067948;28;20032;-85
2023/04/14 03:47:37;;;;;;;7.70;2.90;;;5.00;99.90;;;;;;5067483;28;20459;-84
2023/04/14 03:50:04;;;;;;;6.70;2.70;;;5.00;99.90;;;;;;5068513;28;20033;-84
2023/04/14 03:52:35;;;;;;;7.78;2.83;;;4.90;99.90;;;;;;5064540;28;20045;-85
2023/04/14 03:55:05;;;;;;;7.78;2.80;;;4.90;99.90;;;;;;5050025;28;20044;-85
2023/04/14 03:57:31;;;;;;;7.80;2.80;;;4.80;99.90;;;;;;5067137;28;20106;-84
2023/04/14 04:00:00;;;;;;;6.50;2.47;;;4.80;99.90;;;;;;5067394;28;20102;-85
2023/04/14 04:02:27;;;;;;;7.70;2.75;;;4.70;99.90;;;;;;5068307;28;20036;-85
2023/04/14 04:04:55;;;;;;;7.35;2.97;;;4.70;99.90;;;;;;5067180;28;20109;-85
2023/04/14 04:07:21;;;;;;;7.15;2.95;;;4.60;99.90;;;;;;5068732;28;20036;-85
2023/04/14 04:09:48;;;;;;;8.80;3.00;;;4.60;99.90;;;;;;5066840;28;20096;-85
2023/04/14 04:12:17;;;;;;;6.95;3.05;;;4.50;99.90;;;;;;5065408;28;20040;-85
2023/04/14 04:14:43;;;;;;;9.68;3.00;;;4.50;99.90;;;;;;5068343;28;20053;-85
2023/04/14 04:17:12;;;;;;;8.18;2.80;;;4.40;99.90;;;;;;5065336;28;20132;-85
2023/04/14 04:19:41;;;;;;;6.95;2.72;;;4.30;99.90;;;;;;5082542;28;20037;-85
2023/04/14 04:22:09;;;;;;;7.93;3.13;;;4.30;99.90;;;;;;5049529;28;20095;-85
2023/04/14 04:24:38;;;;;;;6.55;3.20;;;4.20;99.90;;;;;;5063269;28;20392;-85
2023/04/14 04:27:04;;;;;;;6.28;2.72;;;4.20;99.90;;;;;;5064191;28;20056;-85
2023/04/14 04:29:30;;;;;;;7.78;3.40;;;4.20;99.90;;;;;;5063798;28;20132;-85
2023/04/14 04:31:56;;;;;;;8.90;2.97;;;4.10;99.90;;;;;;5066808;28;20110;-85
2023/04/14 04:34:24;;;;;;;9.32;3.20;;;4.00;99.90;;;;;;5046113;28;20036;-85
2023/04/14 04:36:51;;;;;;;8.32;3.00;;;4.00;99.90;;;;;;5067134;28;20456;-85
2023/04/14 04:39:16;;;;;;;7.65;2.83;;;3.90;99.90;;;;;;5067036;28;20117;-84
2023/04/14 04:41:42;;;;;;;7.65;2.97;;;3.90;99.90;;;;;;5067225;28;20037;-85
2023/04/14 04:44:08;;;;;;;8.30;3.05;;;3.80;99.90;;;;;;5065965;28;20040;-85
2023/04/14 04:46:46;;;;;;;7.15;3.15;;;3.80;99.90;;;;;;5069032;28;20040;-85
2023/04/14 04:49:12;;;;;;;8.20;2.72;;;3.80;99.90;;;;;;5067275;28;20051;-84
2023/04/14 04:51:38;;;;;;;7.55;3.30;;;3.70;99.90;;;;;;5062283;28;20036;-85
2023/04/14 04:54:04;;;;;;;9.30;3.45;;;3.70;99.90;;;;;;5066113;28;20046;-85
2023/04/14 04:56:30;;;;;;;8.68;3.22;;;3.70;99.90;;;;;;5068815;28;20501;-85
2023/04/14 04:58:57;;;;;;;12.57;6.38;;;3.70;99.90;;;;;;5066553;28;20063;-85
2023/04/14 05:01:24;;;;;;;8.10;4.00;;;3.70;99.90;;;;;;5065894;28;20040;-84
2023/04/14 05:03:49;;;;;;;9.43;3.17;;;3.70;99.90;;;;;;5068184;28;20464;-84
2023/04/14 05:06:15;;;;;;;8.18;2.88;;;3.70;99.90;;;;;;5067730;28;20081;-85
2023/04/14 05:08:41;;;;;;;8.57;3.65;;;3.60;99.90;;;;;;5068161;28;20103;-85
2023/04/14 05:11:07;;;;;;;8.50;3.53;;;3.60;99.90;;;;;;5067181;28;20071;-84
2023/04/14 05:13:33;;;;;;;7.25;3.22;;;3.60;99.90;;;;;;5067334;28;20044;-84
2023/04/14 05:16:06;;;;;;;8.95;3.00;;;3.60;99.90;;;;;;5067324;28;20491;-86
2023/04/14 05:18:33;;;;;;;8.23;3.53;;;3.50;99.90;;;;;;5067216;28;20477;-85
2023/04/14 05:21:03;;;;;;;13.18;3.40;;;3.50;99.90;;;;;;5066136;28;20048;-85
2023/04/14 05:23:29;;;;;;;7.82;3.40;;;3.50;99.90;;;;;;5067762;28;20437;-85
2023/04/14 05:25:56;;;;;;;8.52;2.97;;;3.50;99.90;;;;;;5067652;28;20060;-85
2023/04/14 05:28:22;;;;;;;7.22;2.72;;;3.50;99.90;;;;;;5050168;28;20052;-84
2023/04/14 05:30:48;;;;;;;8.80;3.58;;;3.50;99.90;;;;;;5065905;28;20111;-84
2023/04/14 05:33:13;;;;;;;8.45;3.58;;;3.50;99.90;;;;;;5065745;28;20170;-85
2023/04/14 05:35:39;;;;;;;8.77;3.17;;;3.50;99.90;;;;;;5060571;28;20488;-86
2023/04/14 05:38:07;;;;;;;8.50;3.67;;;3.60;99.90;;;;;;5059022;28;20184;-84
2023/04/14 05:40:36;;;;;;;7.78;3.15;;;3.60;99.90;;;;;;5047074;28;20040;-84
2023/04/14 05:43:02;;;;;;;9.82;4.15;;;3.60;99.90;;;;;;5043689;28;20071;-85
2023/04/14 05:45:28;;;;;;;8.10;3.40;;;3.60;99.90;;;;;;5066143;28;20490;-83
2023/04/14 05:47:54;;;;;;;9.82;3.70;;;3.60;99.90;;;;;;5064459;28;20123;-84
2023/04/14 05:50:21;;;;;;;9.75;3.67;;;3.70;99.90;;;;;;5065647;28;20039;-83
2023/04/14 05:52:47;;;;;;;10.98;4.40;;;3.70;99.90;;;;;;5065204;28;20151;-84
2023/04/14 05:55:12;;;;;;;9.45;3.95;;;3.70;99.90;;;;;;5067042;28;20040;-86
2023/04/14 05:57:38;;;;;;;7.95;4.10;;;3.70;99.90;;;;;;5065611;28;20121;-85
2023/04/14 06:00:06;;;;;;;10.50;4.90;;;3.80;99.90;;;;;;5064349;28;20051;-85
2023/04/14 06:02:31;;;;;;;11.48;4.90;;;3.80;99.90;;;;;;5064533;28;20078;-84
2023/04/14 06:04:58;;;;;;;10.25;4.57;;;3.90;99.90;;;;;;5064947;28;20028;-84
2023/04/14 06:07:24;;;;;;;9.23;4.57;;;4.00;99.90;;;;;;5065200;28;20115;-85
2023/04/14 06:09:50;;;;;;;10.48;5.32;;;4.10;99.90;;;;;;5065988;28;20123;-85
2023/04/14 06:12:15;;;;;;;9.45;4.15;;;4.20;99.90;;;;;;5064497;28;20499;-83
2023/04/14 06:14:41;;;;;;;9.25;3.88;;;4.30;99.90;;;;;;5065209;28;20607;-85
2023/04/14 06:17:07;;;;;;;9.18;4.05;;;4.50;99.90;;;;;;5064661;28;20048;-84
2023/04/14 06:19:32;;;;;;;10.65;4.20;;;4.70;99.90;;;;;;5064864;28;20385;-83
2023/04/14 06:21:58;;;;;;;11.05;4.13;;;4.90;99.90;;;;;;5066896;28;20029;-84
2023/04/14 06:24:23;;;;;;;10.40;4.85;;;5.10;99.90;;;;;;5065858;28;20035;-86
2023/04/14 06:26:49;;;;;;;13.48;7.82;;;5.30;99.90;;;;;;5067269;28;20041;-82
2023/04/14 06:29:15;;;;;;;10.65;4.38;;;5.60;99.90;;;;;;5063624;28;20040;-86
2023/04/14 06:31:40;;;;;;;9.25;3.70;;;5.70;99.90;;;;;;5065788;28;20058;-85
2023/04/14 06:34:06;;;;;;;11.48;6.20;;;5.90;99.90;;;;;;5064985;28;20509;-85
2023/04/14 06:36:32;;;;;;;11.77;6.00;;;6.10;99.90;;;;;;5062781;28;20043;-84
2023/04/14 06:38:57;;;;;;;12.13;6.30;;;6.30;99.90;;;;;;5063445;28;20075;-84
2023/04/14 06:41:23;;;;;;;10.55;3.92;;;6.60;99.90;;;;;;5066279;28;20072;-84
2023/04/14 06:43:49;;;;;;;11.50;4.20;;;6.70;99.90;;;;;;5069369;28;20085;-85
2023/04/14 06:46:16;;;;;;;12.73;6.13;;;6.90;99.90;;;;;;5065741;28;20535;-85
2023/04/14 06:48:41;;;;;;;10.65;5.85;;;7.10;99.90;;;;;;5063671;28;20119;-84
2023/04/14 06:51:11;;;;;;;8.90;3.88;;;7.20;99.90;;;;;;5064133;28;20123;-84
2023/04/14 06:53:37;;;;;;;10.25;5.35;;;7.40;99.90;;;;;;5063267;28;20106;-84
2023/04/14 06:56:04;;;;;;;9.93;5.68;;;7.50;99.90;;;;;;5078374;28;20040;-82
2023/04/14 06:58:30;;;;;;;14.40;6.03;;;7.60;99.90;;;;;;5064232;28;20136;-83
2023/04/14 07:01:00;;;;;;;12.63;5.47;;;7.80;99.90;;;;;;5062788;28;20089;-83
2023/04/14 07:03:33;;;;;;;11.45;5.85;;;7.90;99.90;;;;;;5046579;28;20037;-84
2023/04/14 07:06:08;;;;;;;10.80;5.43;;;8.10;99.90;;;;;;5059279;28;20049;-83
2023/04/14 07:08:33;;;;;;;12.63;5.50;;;8.20;99.90;;;;;;5064770;28;20076;-85
2023/04/14 07:11:04;;;;;;;10.05;3.55;;;8.30;99.90;;;;;;5065861;28;20080;-83
2023/04/14 07:13:30;;;;;;;11.85;5.30;;;8.40;99.90;;;;;;5061725;28;20056;-83
2023/04/14 07:15:56;;;;;;;11.23;5.60;;;8.50;99.90;;;;;;5067343;28;20605;-82
2023/04/14 07:18:22;;;;;;;12.98;5.85;;;8.60;99.90;;;;;;5068228;28;20075;-83
2023/04/14 07:20:54;;;;;;;12.85;4.97;;;8.70;99.90;;;;;;5068603;28;20036;-83
2023/04/14 07:23:21;;;;;;;11.63;5.15;;;8.90;99.90;;;;;;5067473;28;20111;-85
2023/04/14 07:25:51;;;;;;;10.68;5.15;;;9.00;99.90;;;;;;5070584;28;20055;-83
2023/04/14 07:28:17;;;;;;;12.50;6.10;;;9.10;99.90;;;;;;5068771;28;20056;-83
2023/04/14 07:30:43;;;;;;;12.05;5.00;;;9.20;99.90;;;;;;5061686;28;20040;-82
2023/04/14 07:33:09;;;;;;;9.77;4.95;;;9.30;99.90;;;;;;5067668;28;20105;-86
2023/04/14 07:35:34;;;;;;;12.70;5.72;;;9.30;99.90;;;;;;5069766;28;20052;-86
2023/04/14 07:38:00;;;;;;;10.77;5.22;;;9.40;99.90;;;;;;5069088;28;20040;-86
2023/04/14 07:40:26;;;;;;;11.80;5.10;;;9.60;99.90;;;;;;5068296;28;20047;-86
2023/04/14 07:42:51;;;;;;;11.30;4.88;;;9.70;99.90;;;;;;5067845;28;20043;-86
2023/04/14 07:45:17;;;;;;;13.40;5.13;;;9.80;99.90;;;;;;5070247;28;20048;-86
2023/04/14 07:47:43;;;;;;;11.82;4.90;;;9.90;99.90;;;;;;5069364;28;20048;-87
2023/04/14 07:50:09;;;;;;;10.65;5.20;;;10.10;99.90;;;;;;5050669;28;20094;-87
2023/04/14 07:52:35;;;;;;;11.27;4.50;;;10.10;99.90;;;;;;5067187;28;20496;-86
2023/04/14 07:55:05;;;;;;;11.48;4.25;;;10.30;99.90;;;;;;5069179;28;20111;-88
2023/04/14 07:57:32;;;;;;;10.68;4.53;;;10.40;99.90;;;;;;5051705;28;20123;-86
2023/04/14 07:59:58;;;;;;;10.65;4.20;;;10.50;99.90;;;;;;5068100;28;20056;-86
2023/04/14 08:02:24;;;;;;;11.27;4.25;;;10.50;99.90;;;;;;5068401;28;20025;-86
2023/04/14 08:04:50;;;;;;;10.90;4.25;;;10.60;99.90;;;;;;5067993;28;20515;-86
2023/04/14 08:07:15;;;;;;;11.23;4.50;;;10.80;99.90;;;;;;5069636;28;20467;-88
2023/04/14 08:09:42;;;;;;;12.52;4.70;;;10.80;99.90;;;;;;5069758;28;20056;-86
2023/04/14 08:12:07;;;;;;;9.45;4.35;;;10.90;99.90;;;;;;5068405;28;20072;-86
2023/04/14 08:14:36;;;;;;;10.85;4.60;;;11.00;99.90;;;;;;5069441;28;20060;-89
2023/04/14 08:17:01;;;;;;;10.73;4.53;;;11.00;99.90;;;;;;5068062;28;20036;-89
2023/04/14 08:19:27;;;;;;;11.25;4.45;;;11.10;99.90;;;;;;5068078;28;20033;-88
2023/04/14 08:21:53;;;;;;;9.38;4.07;;;11.20;99.90;;;;;;5068068;28;20116;-90
2023/04/14 08:24:19;;;;;;;10.48;3.60;;;11.20;99.90;;;;;;5068324;28;20037;-90
2023/04/14 08:26:44;;;;;;;13.93;3.90;;;11.30;99.90;;;;;;5069604;28;20545;-87
2023/04/14 08:29:10;;;;;;;10.27;4.30;;;11.40;99.90;;;;;;5068038;28;20048;-87
2023/04/14 08:31:35;;;;;;;9.82;3.40;;;11.50;99.90;;;;;;5069930;28;20044;-90
2023/04/14 08:34:01;;;;;;;9.07;3.70;;;11.60;99.90;;;;;;5068814;28;20458;-87
2023/04/14 08:36:27;;;;;;;10.02;3.90;;;11.70;99.90;;;;;;5068419;28;20043;-87
2023/04/14 08:38:53;;;;;;;10.88;3.80;;;11.70;99.90;;;;;;5050771;28;20042;-90
2023/04/14 08:41:19;;;;;;;8.45;3.47;;;11.80;99.90;;;;;;5068621;28;20072;-89
2023/04/14 08:43:45;;;;;;;11.00;3.50;;;11.80;99.90;;;;;;5069663;28;20060;-89
2023/04/14 08:46:14;;;;;;;8.02;3.15;;;11.90;99.90;;;;;;5067951;28;20263;-89
2023/04/14 08:48:40;;;;;;;10.07;3.60;;;11.90;99.90;;;;;;5046717;28;20056;-89
2023/04/14 08:51:17;;;;;;;10.43;3.53;;;11.90;99.90;;;;;;5067734;28;20080;-89
2023/04/14 08:53:46;;;;;;;9.65;3.83;;;12.00;99.90;;;;;;5068564;28;20126;-87
2023/04/14 08:56:17;;;;;;;9.52;3.35;;;12.00;99.90;;;;;;5069295;28;20052;-87
2023/04/14 08:58:43;;;;;;;11.75;3.95;;;12.10;99.90;;;;;;5068039;28;20474;-87
2023/04/14 09:01:10;;;;;;;8.80;3.55;;;12.00;99.90;;;;;;5066956;28;20086;-86
2023/04/14 09:03:36;;;;;;;12.68;3.78;;;12.10;99.90;;;;;;5068764;28;20257;-87
2023/04/14 09:06:04;;;;;;;9.68;3.35;;;12.20;99.90;;;;;;5067148;28;20064;-87
2023/04/14 09:08:32;;;;;;;9.73;3.10;;;12.20;99.90;;;;;;5069026;28;20045;-87
2023/04/14 09:11:02;;;;;;;10.82;2.92;;;12.30;99.90;;;;;;5047893;28;20074;-86
2023/04/14 09:13:28;;;;;;;8.90;2.70;;;12.40;99.90;;;;;;5064941;28;20119;-88
2023/04/14 09:15:54;;;;;;;10.07;2.92;;;12.40;99.90;;;;;;5050788;28;20044;-87
2023/04/14 09:18:21;;;;;;;9.73;2.53;;;12.50;99.90;;;;;;5083790;28;20114;-90
2023/04/14 09:20:47;;;;;;;8.88;3.03;;;12.60;99.90;;;;;;5067739;28;20032;-89
2023/04/14 09:23:13;;;;;;;10.75;3.22;;;12.70;99.90;;;;;;5067710;28;20051;-88
2023/04/14 09:25:39;;;;;;;8.93;3.10;;;12.80;99.90;;;;;;5067083;28;20427;-88
2023/04/14 09:28:05;;;;;;;10.60;3.47;;;12.80;99.90;;;;;;5067295;28;20033;-87
2023/04/14 09:30:32;;;;;;;9.48;3.55;;;12.80;99.90;;;;;;5066848;28;20051;-87
2023/04/14 09:32:57;;;;;;;9.65;3.40;;;12.80;99.90;;;;;;5066588;28;20052;-87
2023/04/14 09:35:50;;;;;;;9.85;3.47;;;12.90;99.90;;;;;;5050510;28;20090;-88
2023/04/14 09:38:37;;;;;;;10.27;3.28;;;12.90;99.90;;;;;;5049462;28;20450;-87
2023/04/14 09:41:05;;;;;;;10.05;3.50;;;13.00;99.90;;;;;;5066451;28;20044;-87
2023/04/14 09:43:31;;;;;;;10.32;2.97;;;13.00;99.90;;;;;;5067320;28;20047;-88
2023/04/14 09:46:03;;;;;;;9.60;3.08;;;13.10;99.90;;;;;;5066977;28;20151;-87
2023/04/14 09:48:29;;;;;;;10.55;3.67;;;13.10;99.90;;;;;;5066712;28;20047;-87
2023/04/14 09:51:00;;;;;;;10.07;3.17;;;13.10;99.90;;;;;;5068029;28;20119;-89
2023/04/14 09:53:30;;;;;;;10.98;3.35;;;13.10;99.90;;;;;;5067527;28;20118;-87
2023/04/14 09:55:58;;;;;;;12.52;3.80;;;13.10;99.90;;;;;;5065624;28;20045;-87
2023/04/14 09:58:29;;;;;;;9.77;3.63;;;13.20;99.90;;;;;;5067161;28;20063;-88
2023/04/14 10:00:56;;;;;;;11.77;3.47;;;13.20;99.90;;;;;;5067749;28;20040;-88
2023/04/14 10:03:33;;;;;;;11.40;3.53;;;13.20;99.90;;;;;;5065732;28;20387;-88
2023/04/14 10:06:00;;;;;;;10.43;3.30;;;13.20;99.90;;;;;;5066555;28;20040;-88
2023/04/14 10:08:41;;;;;;;10.75;3.13;;;13.30;99.90;;;;;;5066716;28;20059;-88
2023/04/14 10:11:17;;;;;;;11.05;3.30;;;13.40;99.90;;;;;;5061798;28;20614;-88
2023/04/14 10:14:04;;;;;;;10.30;2.97;;;13.50;99.90;;;;;;5066688;28;20400;-88
2023/04/14 10:16:31;;;;;;;11.07;3.20;;;13.50;99.90;;;;;;5066116;28;20052;-88
2023/04/14 10:18:57;;;;;;;11.38;3.55;;;13.60;99.90;;;;;;5068008;28;20040;-88
2023/04/14 10:21:23;;;;;;;9.77;3.10;;;13.70;99.90;;;;;;5070766;28;20055;-89
2023/04/14 10:23:50;;;;;;;10.43;3.00;;;13.70;99.90;;;;;;5070739;28;20063;-88
2023/04/14 10:26:17;;;;;;;10.50;3.13;;;13.80;99.90;;;;;;5070047;28;20044;-87
2023/04/14 10:28:48;;;;;;;10.50;3.22;;;13.80;99.90;;;;;;5070201;28;20427;-88
2023/04/14 10:31:19;;;;;;;10.52;3.30;;;13.80;99.90;;;;;;5077465;28;20094;-87
2023/04/14 10:33:45;;;;;;;10.48;3.45;;;13.90;99.90;;;;;;5076159;28;20058;-87
2023/04/14 10:36:11;;;;;;;10.60;3.70;;;13.90;99.90;;;;;;5072704;28;20547;-88
2023/04/14 10:38:41;;;;;;;11.27;3.58;;;13.90;99.90;;;;;;5070074;28;20036;-87
2023/04/14 10:41:08;;;;;;;10.38;3.72;;;14.00;99.90;;;;;;5068125;28;20439;-87
2023/04/14 10:43:35;;;;;;;11.18;3.10;;;14.00;99.90;;;;;;5069527;28;20079;-88
2023/04/14 10:46:02;;;;;;;9.20;2.67;;;14.10;99.90;;;;;;5065849;28;20045;-89
2023/04/14 10:48:33;;;;;;;8.85;2.80;;;14.20;99.90;;;;;;5064051;28;20098;-87
2023/04/14 10:51:03;;;;;;;9.23;2.88;;;14.20;99.90;;;;;;5064192;28;20047;-85
2023/04/14 10:53:54;;;;;;;8.60;2.85;;;14.30;99.90;;;;;;5058722;28;20513;-88
2023/04/14 10:56:20;;;;;;;10.32;3.25;;;14.40;99.90;;;;;;5080925;28;20056;-89
2023/04/14 10:58:55;;;;;;;8.73;3.08;;;14.50;99.90;;;;;;5063554;28;20056;-89
2023/04/14 11:01:31;;;;;;;11.23;3.60;;;14.60;99.90;;;;;;5048995;28;20044;-88
2023/04/14 11:04:10;;;;;;;10.13;3.50;;;14.70;99.90;;;;;;5065596;28;20102;-87
2023/04/14 11:06:45;;;;;;;9.43;3.25;;;14.70;99.90;;;;;;5064274;28;20045;-87
2023/04/14 11:09:29;;;;;;;9.45;3.05;;;14.70;99.90;;;;;;5060191;28;20052;-88
2023/04/14 11:11:56;;;;;;;11.02;3.42;;;14.80;99.90;;;;;;5062376;28;20051;-89
2023/04/14 11:14:32;;;;;;;8.77;2.80;;;14.70;99.90;;;;;;5065870;28;20051;-87
2023/04/14 11:17:00;;;;;;;9.65;2.88;;;14.80;99.90;;;;;;5064966;28;20511;-88
2023/04/14 11:19:26;;;;;;;8.23;2.70;;;14.80;99.90;;;;;;5065707;28;20044;-87
2023/04/14 11:21:52;;;;;;;10.50;3.25;;;14.80;99.90;;;;;;5064190;28;20052;-91
2023/04/14 11:24:22;;;;;;;8.35;2.97;;;14.90;99.90;;;;;;5064368;28;20032;-88
2023/04/14 11:26:55;;;;;;;10.75;3.42;;;15.00;99.90;;;;;;5060155;28;20032;-91
2023/04/14 11:29:21;;;;;;;10.57;3.33;;;15.00;99.90;;;;;;5046231;28;20126;-85
2023/04/14 11:32:03;;;;;;;10.55;3.05;;;14.90;99.90;;;;;;5063731;28;20043;-88
2023/04/14 11:34:28;;;;;;;10.70;3.22;;;14.90;99.90;;;;;;5059501;28;20032;-87
2023/04/14 11:36:54;;;;;;;9.27;2.88;;;14.80;99.90;;;;;;5065701;28;20052;-87
2023/04/14 11:39:20;;;;;;;8.40;2.50;;;14.80;99.90;;;;;;5063954;28;20041;-87
2023/04/14 11:41:47;;;;;;;9.63;2.72;;;14.70;99.90;;;;;;5069095;28;20123;-92
2023/04/14 11:44:20;;;;;;;8.98;2.40;;;14.50;99.90;;;;;;5070507;28;20036;-96
2023/04/14 11:46:45;;;;;;;9.10;2.95;;;14.50;99.90;;;;;;5068911;28;20055;-90
2023/04/14 11:49:11;;;;;;;8.68;3.03;;;14.60;99.90;;;;;;5059781;28;20159;-90
2023/04/14 11:51:37;;;;;;;7.68;2.72;;;14.60;99.90;;;;;;5071846;28;20039;-90
2023/04/14 11:54:04;;;;;;;9.90;3.13;;;14.50;99.90;;;;;;5070725;28;20039;-90
2023/04/14 11:56:30;;;;;;;11.77;3.67;;;14.50;99.90;;;;;;5074438;28;20037;-90
2023/04/14 11:59:00;;;;;;;8.57;2.47;;;14.40;99.90;;;;;;5048030;28;20049;-91
2023/04/14 12:01:27;;;;;;;7.68;2.80;;;14.40;99.90;;;;;;5069692;28;20056;-91
2023/04/14 12:03:53;;;;;;;9.18;2.70;;;14.60;99.90;;;;;;5069119;28;20123;-91
2023/04/14 12:06:19;;;;;;;9.25;2.92;;;14.60;99.90;;;;;;5071266;28;20143;-90
2023/04/14 12:08:50;;;;;;;9.95;3.22;;;14.70;99.90;;;;;;5069628;28;20484;-91
2023/04/14 12:11:16;;;;;;;8.52;2.85;;;14.70;99.90;;;;;;5070369;28;20044;-90
2023/04/14 12:13:44;;;;;;;9.57;2.90;;;14.60;99.90;;;;;;5065339;28;20092;-93
2023/04/14 12:16:11;;;;;;;7.03;2.63;;;14.50;99.90;;;;;;5069090;28;20388;-90
2023/04/14 12:18:36;;;;;;;9.93;2.92;;;14.40;99.90;;;;;;5062952;28;20068;-90
2023/04/14 12:21:03;;;;;;;9.88;3.30;;;14.50;99.90;;;;;;5068616;28;20083;-90
2023/04/14 12:23:34;;;;;;;11.18;3.40;;;14.60;99.90;;;;;;5062118;28;20052;-90
2023/04/14 12:26:00;;;;;;;8.77;2.80;;;15.00;99.90;;;;;;5062698;28;20041;-91
2023/04/14 12:28:27;;;;;;;7.40;2.72;;;15.20;99.90;;;;;;5071846;28;20044;-89
2023/04/14 12:30:57;;;;;;;9.52;2.83;;;15.40;99.90;;;;;;5068389;28;20039;-91
2023/04/14 12:33:26;;;;;;;7.80;2.85;;;15.50;99.90;;;;;;5064219;28;20036;-88
2023/04/14 12:35:52;;;;;;;9.88;2.88;;;15.50;99.90;;;;;;5064554;28;20036;-88
2023/04/14 12:38:18;;;;;;;10.57;2.97;;;15.70;99.90;;;;;;5069457;28;20037;-89
2023/04/14 12:40:46;;;;;;;9.90;2.97;;;15.90;99.90;;;;;;5068344;28;20078;-89
2023/04/14 12:43:13;;;;;;;7.95;2.90;;;15.90;99.90;;;;;;5065470;28;20110;-89
2023/04/14 12:45:43;;;;;;;9.85;3.60;;;16.00;99.60;;;;;;5068387;28;20051;-89
2023/04/14 12:48:11;;;;;;;10.47;3.40;;;16.00;99.20;;;;;;5064624;28;20040;-88
2023/04/14 12:50:37;;;;;;;8.20;3.30;;;15.90;99.10;;;;;;5064950;28;20519;-90
2023/04/14 12:53:26;;;;;;;8.13;3.10;;;15.90;99.60;;;;;;5065950;28;20040;-88